createdAt,value
2023-01-13T00:01:44.693Z,3.00
2023-01-13T00:05:49.833Z,3.00
2023-01-13T00:09:54.981Z,2.90
2023-01-13T00:14:00.123Z,3.10
2023-01-13T00:18:05.311Z,3.20
2023-01-13T00:22:10.494Z,3.20
2023-01-13T00:26:16.719Z,2.80
2023-01-13T00:30:21.917Z,3.80
2023-01-13T00:34:27.082Z,4.20
2023-01-13T00:38:33.309Z,3.30
2023-01-13T00:42:56.353Z,3.00
2023-01-13T00:47:01.570Z,3.40
2023-01-13T00:51:07.582Z,3.40
2023-01-13T00:55:14.246Z,3.40
2023-01-13T00:59:19.460Z,2.70
2023-01-13T01:03:24.635Z,2.70
2023-01-13T01:07:29.817Z,3.10
2023-01-13T01:11:35.458Z,2.90
2023-01-13T01:15:43.513Z,3.60
2023-01-13T01:19:48.701Z,3.40
2023-01-13T01:23:54.215Z,2.90
2023-01-13T01:27:59.661Z,3.50
2023-01-13T01:32:04.879Z,3.10
2023-01-13T01:36:11.083Z,3.20
2023-01-13T01:40:16.399Z,3.30
2023-01-13T01:44:38.160Z,3.20
2023-01-13T01:48:43.644Z,3.20
2023-01-13T01:52:51.321Z,3.30
2023-01-13T01:56:56.828Z,3.50
2023-01-13T02:01:02.161Z,3.40
2023-01-13T02:05:08.047Z,3.40
2023-01-13T02:09:13.693Z,2.90
2023-01-13T02:13:18.853Z,2.90
2023-01-13T02:17:28.416Z,2.80
2023-01-13T02:21:47.916Z,3.20
2023-01-13T02:26:04.175Z,3.20
2023-01-13T02:30:31.669Z,2.90
2023-01-13T02:34:39.005Z,3.50
2023-01-13T02:38:48.296Z,3.50
2023-01-13T02:43:16.730Z,2.50
2023-01-13T02:47:22.728Z,3.00
2023-01-13T02:51:30.240Z,2.90
2023-01-13T02:55:37.664Z,3.30
2023-01-13T02:59:44.261Z,3.10
2023-01-13T03:03:50.182Z,2.80
2023-01-13T03:08:06.240Z,2.80
2023-01-13T03:12:16.488Z,3.00
2023-01-13T03:16:27.365Z,3.80
2023-01-13T03:20:34.660Z,3.30
2023-01-13T03:24:40.959Z,3.70
2023-01-13T03:28:50.204Z,3.50
2023-01-13T03:32:58.285Z,3.30
2023-01-13T03:37:09.463Z,2.90
2023-01-13T03:41:15.814Z,2.70
2023-01-13T03:45:21.135Z,3.60
2023-01-13T03:49:28.780Z,3.10
2023-01-13T03:53:35.089Z,3.30
2023-01-13T03:57:42.425Z,2.80
2023-01-13T04:01:52.140Z,2.90
2023-01-13T04:05:59.631Z,3.20
2023-01-13T04:10:06.430Z,2.90
2023-01-13T04:14:12.571Z,2.80
2023-01-13T04:18:18.881Z,3.30
2023-01-13T04:22:23.956Z,3.00
2023-01-13T04:26:29.071Z,2.80
2023-01-13T04:30:34.198Z,2.40
2023-01-13T04:34:39.288Z,2.70
2023-01-13T04:38:44.354Z,2.50
2023-01-13T04:42:49.671Z,2.80
2023-01-13T04:46:54.758Z,2.80
2023-01-13T04:50:59.787Z,2.50
2023-01-13T04:55:05.152Z,2.50
2023-01-13T04:59:11.506Z,2.90
2023-01-13T05:03:16.635Z,2.70
2023-01-13T05:07:21.829Z,2.50
2023-01-13T05:11:44.489Z,2.50
2023-01-13T05:16:18.568Z,3.00
2023-01-13T05:20:25.763Z,2.90
2023-01-13T05:24:48.206Z,2.50
2023-01-13T05:28:53.310Z,2.90
2023-01-13T05:32:58.423Z,3.40
2023-01-13T05:37:03.501Z,2.80
2023-01-13T05:41:26.508Z,2.40
2023-01-13T05:45:32.578Z,2.80
2023-01-13T05:49:37.746Z,2.60
2023-01-13T05:53:42.811Z,2.60
2023-01-13T05:57:47.912Z,3.00
2023-01-13T06:01:52.968Z,2.50
2023-01-13T06:06:01.764Z,2.30
2023-01-13T06:10:07.916Z,3.10
2023-01-13T06:14:13.005Z,2.40
2023-01-13T06:18:18.169Z,2.70
2023-01-13T06:22:25.101Z,2.20
2023-01-13T06:26:32.186Z,2.60
2023-01-13T06:30:39.199Z,2.70
2023-01-13T06:34:45.346Z,2.40
2023-01-13T06:38:52.161Z,2.40
2023-01-13T06:43:16.765Z,2.90
2023-01-13T06:47:22.577Z,3.50
2023-01-13T06:55:31.179Z,2.70
2023-01-13T06:59:36.210Z,2.50
2023-01-13T07:03:41.474Z,2.30
2023-01-13T07:07:46.526Z,2.40
2023-01-13T07:11:52.768Z,2.70
2023-01-13T07:15:59.369Z,2.70
2023-01-13T07:20:04.724Z,2.60
2023-01-13T07:28:13.648Z,2.30
2023-01-13T07:32:18.703Z,2.70
2023-01-13T07:36:23.811Z,2.30
2023-01-13T07:40:28.923Z,2.50
2023-01-13T07:44:34.156Z,2.40
2023-01-13T07:48:39.302Z,2.30
2023-01-13T07:52:44.390Z,2.80
2023-01-13T07:56:49.464Z,2.30
2023-01-13T08:00:55.189Z,2.60
2023-01-13T08:05:00.308Z,2.30
2023-01-13T08:09:05.363Z,2.30
2023-01-13T08:13:18.492Z,2.30
2023-01-13T08:17:23.563Z,2.10
2023-01-13T08:21:28.610Z,2.30
2023-01-13T08:25:33.767Z,2.40
2023-01-13T08:29:38.831Z,2.60
2023-01-13T08:33:43.860Z,2.60
2023-01-13T08:37:49.689Z,2.60
2023-01-13T08:41:56.341Z,2.60
2023-01-13T08:46:04.587Z,2.00
2023-01-13T08:50:11.724Z,2.40
2023-01-13T08:54:16.936Z,2.70
2023-01-13T08:58:21.982Z,2.40
2023-01-13T09:02:27.419Z,2.40
2023-01-13T09:10:36.873Z,2.60
2023-01-13T09:14:43.567Z,2.30
2023-01-13T09:18:48.685Z,2.10
2023-01-13T09:22:53.749Z,2.80
2023-01-13T09:26:58.912Z,2.30
2023-01-13T09:31:04.036Z,2.40
2023-01-13T09:35:09.751Z,2.00
2023-01-13T09:39:17.024Z,2.90
2023-01-13T09:43:42.392Z,2.70
2023-01-13T09:47:51.255Z,2.10
2023-01-13T09:51:59.475Z,2.40
2023-01-13T09:56:04.721Z,2.30
2023-01-13T10:00:14.957Z,2.20
2023-01-13T10:04:20.239Z,2.70
2023-01-13T10:08:30.466Z,2.60
2023-01-13T10:12:53.257Z,2.20
2023-01-13T10:17:03.595Z,2.30
2023-01-13T10:21:21.100Z,2.20
2023-01-13T10:25:41.521Z,2.30
2023-01-13T10:29:46.668Z,2.40
2023-01-13T10:33:58.584Z,2.30
2023-01-13T10:38:05.599Z,2.80
2023-01-13T10:42:14.881Z,2.40
2023-01-13T10:46:24.073Z,2.50
2023-01-13T10:50:29.976Z,2.60
2023-01-13T10:54:37.728Z,2.60
2023-01-13T10:58:44.429Z,2.40
2023-01-13T11:03:20.635Z,2.40
2023-01-13T11:07:34.872Z,2.60
2023-01-13T11:11:41.208Z,2.30
2023-01-13T11:15:50.254Z,2.70
2023-01-13T11:19:58.423Z,2.40
2023-01-13T11:24:14.369Z,2.30
2023-01-13T11:28:36.923Z,2.60
2023-01-13T11:32:44.621Z,2.40
2023-01-13T11:36:55.067Z,2.50
2023-01-13T11:41:04.105Z,2.40
2023-01-13T11:45:16.803Z,2.50
2023-01-13T11:49:26.199Z,2.60
2023-01-13T11:53:47.896Z,2.90
2023-01-13T11:58:07.669Z,2.60
2023-01-13T12:02:31.189Z,2.60
2023-01-13T12:06:37.549Z,2.10
2023-01-13T12:10:47.408Z,2.70
2023-01-13T12:15:24.105Z,2.70
2023-01-13T12:19:30.624Z,2.60
2023-01-13T12:23:38.583Z,2.30
2023-01-13T12:27:50.345Z,2.50
2023-01-13T12:31:55.883Z,2.20
2023-01-13T12:36:07.238Z,2.80
2023-01-13T12:40:20.797Z,2.60
2023-01-13T12:44:25.871Z,2.40
2023-01-13T12:48:52.967Z,2.10
2023-01-13T12:52:58.894Z,2.50
2023-01-13T12:57:21.825Z,2.80
2023-01-13T13:01:35.548Z,3.00
2023-01-13T13:05:48.913Z,2.80
2023-01-13T13:09:57.237Z,2.40
2023-01-13T13:14:02.599Z,2.40
2023-01-13T13:22:46.018Z,2.50
2023-01-13T13:26:51.844Z,2.60
2023-01-13T13:31:14.377Z,2.40
2023-01-13T13:35:33.885Z,3.20
2023-01-13T13:40:00.054Z,3.30
2023-01-13T13:44:29.164Z,2.80
2023-01-13T13:48:34.430Z,2.20
2023-01-13T13:56:47.782Z,2.20
2023-01-13T14:00:53.530Z,2.30
2023-01-13T14:05:13.965Z,2.70
2023-01-13T14:09:20.055Z,2.20
2023-01-13T14:13:29.342Z,2.40
2023-01-13T14:17:36.888Z,2.60
2023-01-13T14:21:41.976Z,2.80
2023-01-13T14:25:49.257Z,2.80
2023-01-13T14:29:58.273Z,2.50
2023-01-13T14:34:31.735Z,2.40
2023-01-13T14:38:29.741Z,2.70
2023-01-13T14:42:35.600Z,2.60
2023-01-13T14:46:44.029Z,2.50
2023-01-13T14:50:49.708Z,2.50
2023-01-13T14:54:55.333Z,2.30
2023-01-13T14:59:18.043Z,2.40
2023-01-13T15:03:23.173Z,2.80
2023-01-13T15:07:29.714Z,2.80
2023-01-13T15:11:34.973Z,2.70
2023-01-13T15:15:40.614Z,2.20
2023-01-13T15:19:47.245Z,2.30
2023-01-13T15:23:53.835Z,2.50
2023-01-13T15:27:58.978Z,2.20
2023-01-13T15:32:03.998Z,3.10
2023-01-13T15:36:18.629Z,2.20
2023-01-13T15:40:24.466Z,2.60
2023-01-13T15:44:46.674Z,2.10
2023-01-13T15:48:54.839Z,2.90
2023-01-13T15:53:00.119Z,2.70
2023-01-13T15:57:05.274Z,2.70
2023-01-13T16:01:11.138Z,2.30
2023-01-13T16:05:18.362Z,2.90
2023-01-13T16:09:23.752Z,2.60
2023-01-13T16:13:28.838Z,2.70
2023-01-13T16:17:34.616Z,2.50
2023-01-13T16:21:41.497Z,2.60
2023-01-13T16:25:46.906Z,2.60
2023-01-13T16:33:59.661Z,2.70
2023-01-13T16:38:04.795Z,2.90
2023-01-13T16:42:09.917Z,3.30
2023-01-13T16:46:19.910Z,3.00
2023-01-13T16:50:31.570Z,2.70
2023-01-13T16:58:41.782Z,2.90
2023-01-13T17:02:47.088Z,3.00
2023-01-13T17:11:00.271Z,2.80
2023-01-13T17:15:05.853Z,4.20
2023-01-13T17:19:12.999Z,4.40
2023-01-13T17:23:18.085Z,2.80
2023-01-13T17:27:23.370Z,2.60
2023-01-13T17:35:33.737Z,3.00
2023-01-13T17:39:38.843Z,3.10
2023-01-13T17:43:43.953Z,2.90
2023-01-13T17:47:49.090Z,3.30
2023-01-13T17:51:55.100Z,2.50
2023-01-13T17:56:01.947Z,2.90
2023-01-13T18:00:07.992Z,2.60
2023-01-13T18:04:18.163Z,2.70
2023-01-13T18:08:24.507Z,2.80
2023-01-13T18:12:29.600Z,3.40
2023-01-13T18:16:34.738Z,2.80
2023-01-13T18:20:57.457Z,2.60
2023-01-13T18:25:21.325Z,3.00
2023-01-13T18:29:27.097Z,2.80
2023-01-13T18:33:32.144Z,2.90
2023-01-13T18:37:38.784Z,2.90
2023-01-13T18:42:01.546Z,2.70
2023-01-13T18:46:06.777Z,3.10
2023-01-13T18:54:19.679Z,2.90
2023-01-13T18:58:24.830Z,3.20
2023-01-13T19:02:30.124Z,2.80
2023-01-13T19:10:41.377Z,3.00
2023-01-13T19:14:48.408Z,3.40
2023-01-13T19:18:53.487Z,3.20
2023-01-13T19:22:58.604Z,3.30
2023-01-13T19:27:03.925Z,3.20
2023-01-13T19:35:18.057Z,3.20
2023-01-13T19:39:23.432Z,3.40
2023-01-13T19:47:49.670Z,3.40
2023-01-13T19:51:54.776Z,4.40
2023-01-13T19:56:00.226Z,4.40
2023-01-13T20:00:09.190Z,4.10
2023-01-13T20:04:17.094Z,4.40
2023-01-13T20:08:24.786Z,4.30
2023-01-13T20:12:29.948Z,4.50
2023-01-13T20:16:35.054Z,3.80
2023-01-13T20:20:40.140Z,2.70
2023-01-13T20:24:45.255Z,2.70
2023-01-13T20:28:50.295Z,3.10
2023-01-13T20:32:55.384Z,3.00
2023-01-13T20:37:00.533Z,3.00
2023-01-13T20:41:26.747Z,3.80
2023-01-13T20:45:33.351Z,3.00
2023-01-13T20:49:38.423Z,4.00
2023-01-13T20:53:43.512Z,3.50
2023-01-13T20:57:50.237Z,3.30
2023-01-13T21:01:55.330Z,3.00
2023-01-13T21:06:00.419Z,3.20
2023-01-13T21:10:05.838Z,3.20
2023-01-13T21:18:49.839Z,3.20
2023-01-13T21:22:54.899Z,2.80
2023-01-13T21:27:00.008Z,2.90
2023-01-13T21:31:05.922Z,3.10
2023-01-13T21:35:13.921Z,3.40
2023-01-13T21:39:19.024Z,2.70
2023-01-13T21:43:41.656Z,3.50
2023-01-13T21:47:49.375Z,2.70
2023-01-13T21:51:55.922Z,3.00
2023-01-13T21:56:02.563Z,2.80
2023-01-13T22:00:08.804Z,3.00
2023-01-13T22:04:13.849Z,2.80
2023-01-13T22:08:18.912Z,2.80
2023-01-13T22:12:24.156Z,2.60
2023-01-13T22:16:31.693Z,2.80
2023-01-13T22:20:36.748Z,3.40
2023-01-13T22:24:43.422Z,4.90
2023-01-13T22:28:48.491Z,3.80
2023-01-13T22:32:53.569Z,3.70
2023-01-13T22:36:58.904Z,3.10
2023-01-13T22:41:06.255Z,2.80
2023-01-13T22:45:13.312Z,2.50
2023-01-13T22:49:18.873Z,2.90
2023-01-13T22:57:35.643Z,2.80
2023-01-13T23:01:42.143Z,2.90
2023-01-13T23:05:47.269Z,2.50
2023-01-13T23:09:52.426Z,2.50
2023-01-13T23:14:01.265Z,2.90
2023-01-13T23:18:06.362Z,3.10
2023-01-13T23:22:13.072Z,3.30
2023-01-13T23:26:18.193Z,3.90
2023-01-13T23:30:23.307Z,3.40
2023-01-13T23:34:28.555Z,3.70
2023-01-13T23:38:33.951Z,3.20
2023-01-13T23:42:39.035Z,3.00
2023-01-13T23:46:44.109Z,3.00
2023-01-13T23:50:59.073Z,2.90
2023-01-13T23:55:04.225Z,3.10
2023-01-13T23:59:09.385Z,2.60
